.
WxDataArchive / Data Records for 2006-02-19
2006-02-18 February 2006 2006-02-20

Data Records for Sunday, 19 February 2006

Time	Temp	Chill	HIndex	Humid	Dewpt	 Wind 	HiWind	WindDir	Rain 	Barom 
-----	----	-----	------	-----	-----	------	------	-------	-----	----- 
00:00	4.7	4.7	4.7	70	-2.9	0	2	248	0.00	30.589 
00:05	4.7	4.7	4.7	70	-2.9	0	1	248	0.00	30.589 
00:10	4.7	4.7	4.7	70	-2.9	0	3	248	0.00	30.589 
00:15	4.7	4.7	4.7	70	-2.9	0	3	248	0.00	30.586 
00:20	4.7	4.7	4.7	70	-2.9	1	3	248	0.00	30.586 
00:25	4.7	4.7	4.7	70	-2.9	0	1	248	0.00	30.586 
00:30	4.5	4.5	4.5	70	-3.1	1	3	248	0.00	30.582 
00:35	4.5	4.5	4.5	70	-3.1	1	4	248	0.00	30.582 
00:40	4.7	4.7	4.7	70	-2.9	1	2	248	0.00	30.582 
00:45	4.7	4.7	4.7	70	-2.9	1	2	248	0.00	30.582 
00:50	4.7	4.7	4.7	70	-2.9	1	3	248	0.00	30.582 
00:55	4.5	4.5	4.5	70	-3.1	0	3	248	0.00	30.582 
01:00	4.5	4.5	4.5	70	-3.1	1	3	248	0.00	30.582 
01:05	4.5	4.5	4.5	69	-3.4	1	3	248	0.00	30.582 
01:10	4.5	4.5	4.5	69	-3.4	1	3	248	0.00	30.582 
01:15	4.5	4.5	4.5	69	-3.4	1	3	248	0.00	30.581 
01:20	4.5	4.5	4.5	69	-3.4	1	5	248	0.00	30.581 
01:25	4.5	4.5	4.5	69	-3.4	0	2	248	0.00	30.581 
01:30	4.5	4.5	4.5	69	-3.4	1	3	248	0.00	30.582 
01:35	4.5	4.5	4.5	69	-3.4	1	3	248	0.00	30.582 
01:40	4.5	4.5	4.5	69	-3.4	0	4	248	0.00	30.582 
01:45	4.5	4.5	4.5	68	-3.7	1	3	248	0.00	30.584 
01:50	4.5	4.5	4.5	69	-3.4	0	2	248	0.00	30.584 
01:55	4.5	4.5	4.5	69	-3.4	1	3	248	0.00	30.584 
02:00	4.5	4.5	4.5	68	-3.7	1	2	248	0.00	30.592 
02:05	4.5	4.5	4.5	67	-4.0	1	5	248	0.00	30.592 
02:10	4.5	4.5	4.5	67	-4.0	1	3	248	0.00	30.592 
02:15	4.7	4.7	4.7	67	-3.8	1	2	248	0.00	30.585 
02:20	4.7	4.7	4.7	66	-4.1	1	4	248	0.00	30.585 
02:25	4.7	4.7	4.7	65	-4.4	1	6	248	0.00	30.585 
02:30	4.7	4.7	4.7	65	-4.4	1	6	248	0.00	30.584 
02:35	4.7	4.7	4.7	64	-4.8	1	3	248	0.00	30.584 
02:40	4.7	4.7	4.7	62	-5.4	1	3	248	0.00	30.584 
02:45	4.7	4.7	4.7	62	-5.4	1	6	248	0.00	30.582 
02:50	4.7	4.7	4.7	62	-5.4	1	4	248	0.00	30.582 
02:55	4.7	4.7	4.7	62	-5.4	1	5	248	0.00	30.582 
03:00	4.7	4.7	4.7	61	-5.8	1	5	248	0.00	30.582 
03:05	4.7	4.7	4.7	61	-5.8	1	3	248	0.00	30.582 
03:10	4.7	4.7	4.7	61	-5.8	1	2	248	0.00	30.582 
03:15	4.7	4.7	4.7	61	-5.8	1	3	248	0.00	30.584 
03:20	4.7	4.7	4.7	61	-5.8	1	4	270	0.00	30.584 
03:25	4.7	4.7	4.7	61	-5.8	1	4	248	0.00	30.584 
03:30	4.7	4.7	4.7	61	-5.8	1	4	248	0.00	30.583 
03:35	4.7	4.7	4.7	61	-5.8	2	4	248	0.00	30.583 
03:40	4.7	4.7	4.7	60	-6.1	1	6	248	0.00	30.583 
03:45	4.8	4.8	4.8	60	-6.0	1	6	248	0.00	30.580 
03:50	4.8	4.8	4.8	60	-6.0	2	6	248	0.00	30.580 
03:55	5.0	5.0	5.0	59	-6.2	1	4	248	0.00	30.580 
04:00	5.0	5.0	5.0	59	-6.2	1	5	248	0.00	30.581 
04:05	5.0	5.0	5.0	59	-6.2	2	6	248	0.00	30.581 
04:10	5.0	5.0	5.0	59	-6.2	1	4	248	0.00	30.581 
04:15	5.0	5.0	5.0	59	-6.2	2	6	248	0.00	30.585 
04:20	5.0	5.0	5.0	58	-6.5	2	5	248	0.00	30.585 
04:25	5.0	5.0	5.0	58	-6.5	2	6	248	0.00	30.585 
04:30	5.0	5.0	5.0	58	-6.5	2	7	270	0.00	30.585 
04:35	5.0	5.0	5.0	58	-6.5	3	7	248	0.00	30.585 
04:40	5.0	5.0	5.0	59	-6.2	2	5	248	0.00	30.585 
04:45	5.0	5.0	5.0	60	-5.8	1	4	248	0.00	30.583 
04:50	5.0	5.0	5.0	60	-5.8	2	8	248	0.00	30.583 
04:55	4.8	4.8	4.8	59	-6.3	3	9	270	0.00	30.583 
05:00	4.8	4.8	4.8	58	-6.7	3	9	248	0.00	30.572 
05:05	4.8	4.8	4.8	59	-6.3	2	7	248	0.00	30.572 
05:10	4.7	4.7	4.7	59	-6.4	2	6	248	0.00	30.572 
05:15	4.7	4.7	4.7	60	-6.1	2	10	270	0.00	30.573 
05:20	4.5	4.5	4.5	61	-5.9	1	4	248	0.00	30.573 
05:25	4.5	4.5	4.5	61	-5.9	1	3	248	0.00	30.573 
05:30	4.3	4.3	4.3	61	-6.1	1	4	248	0.00	30.576 
05:35	4.3	4.3	4.3	62	-5.8	0	2	248	0.00	30.576 
05:40	4.3	4.3	4.3	61	-6.1	1	3	248	0.00	30.576 
05:45	4.3	4.3	4.3	60	-6.5	1	4	248	0.00	30.573 
05:50	4.3	4.3	4.3	61	-6.1	0	2	248	0.00	30.573 
05:55	4.1	4.1	4.1	62	-6.0	0	2	248	0.00	30.573 
06:00	4.1	4.1	4.1	62	-6.0	0	3	248	0.00	30.569 
06:05	4.1	4.1	4.1	62	-6.0	1	3	248	0.00	30.569 
06:10	3.9	3.9	3.9	62	-6.2	1	3	248	0.00	30.569 
06:15	3.9	3.9	3.9	62	-6.2	1	3	248	0.00	30.568 
06:20	3.9	3.9	3.9	62	-6.2	0	2	225	0.00	30.568 
06:25	3.7	3.7	3.7	63	-6.0	0	2	225	0.00	30.568 
06:30	3.7	3.7	3.7	63	-6.0	0	2	248	0.00	30.562 
06:35	3.7	3.7	3.7	63	-6.0	1	2	248	0.00	30.562 
06:40	3.7	3.7	3.7	63	-6.0	0	2	248	0.00	30.562 
06:45	3.5	3.5	3.5	62	-6.6	1	5	248	0.00	30.556 
06:50	3.7	3.7	3.7	62	-6.4	1	5	248	0.00	30.556 
06:55	3.7	3.7	3.7	62	-6.4	1	5	248	0.00	30.556 
07:00	3.5	3.5	3.5	62	-6.6	0	2	248	0.00	30.555 
07:05	3.5	3.5	3.5	62	-6.6	1	3	248	0.00	30.555 
07:10	3.5	3.5	3.5	62	-6.6	0	3	248	0.00	30.555 
07:15	3.4	3.4	3.4	63	-6.3	0	2	248	0.00	30.556 
07:20	3.4	3.4	3.4	64	-6.0	1	3	248	0.00	30.556 
07:25	3.4	3.4	3.4	64	-6.0	1	2	248	0.00	30.556 
07:30	3.4	3.4	3.4	63	-6.3	1	4	248	0.00	30.557 
07:35	3.4	3.4	3.4	64	-6.0	1	2	248	0.00	30.557 
07:40	3.4	3.4	3.4	64	-6.0	1	2	248	0.00	30.557 
07:45	3.4	3.4	3.4	64	-6.0	1	5	248	0.00	30.556 
07:50	3.4	3.4	3.4	65	-5.7	0	3	248	0.00	30.556 
07:55	3.4	3.4	3.4	65	-5.7	0	2	248	0.00	30.556 
08:00	3.5	3.5	3.5	65	-5.6	1	4	248	0.00	30.553 
08:05	3.5	3.5	3.5	65	-5.6	1	3	248	0.00	30.553 
08:10	3.9	3.9	3.9	65	-5.2	1	3	248	0.00	30.553 
08:15	4.1	4.1	4.1	64	-5.3	1	4	248	0.00	30.556 
08:20	4.5	4.5	4.5	64	-5.0	0	2	248	0.00	30.556 
08:25	4.8	4.8	4.8	61	-5.7	1	4	248	0.00	30.556 
08:30	5.0	5.0	5.0	60	-5.8	2	4	248	0.00	30.558 
08:35	5.2	5.2	5.2	58	-6.3	3	7	248	0.00	30.558 
08:40	5.6	5.6	5.6	59	-5.6	1	4	225	0.00	30.558 
08:45	6.0	6.0	6.0	56	-6.3	2	7	248	0.00	30.560 
08:50	6.1	6.1	6.1	57	-5.8	2	6	248	0.00	30.560 
08:55	6.1	6.1	6.1	55	-6.6	3	9	248	0.00	30.560 
09:00	6.1	6.1	6.1	56	-6.2	2	5	248	0.00	30.555 
09:05	6.7	6.7	6.7	59	-4.5	1	3	270	0.00	30.555 
09:10	7.2	7.2	7.2	58	-4.4	1	6	248	0.00	30.555 
09:15	7.4	7.4	7.4	59	-3.9	2	5	248	0.00	30.556 
09:20	7.7	7.7	7.7	58	-4.0	2	4	248	0.00	30.556 
09:25	7.9	7.9	7.9	58	-3.8	2	5	248	0.00	30.556 
09:30	7.9	7.9	7.9	56	-4.5	2	6	248	0.00	30.553 
09:35	8.4	8.4	8.4	56	-4.0	2	4	270	0.00	30.553 
09:40	8.6	8.6	8.6	53	-5.0	2	4	270	0.00	30.553 
09:45	8.6	8.6	8.6	53	-5.0	3	9	248	0.00	30.553 
09:50	8.8	8.8	8.8	55	-4.0	2	6	248	0.00	30.553 
09:55	9.3	9.3	9.3	55	-3.6	2	5	248	0.00	30.553 
10:00	9.3	9.3	9.3	52	-4.7	3	7	248	0.00	30.552 
10:05	9.5	9.5	9.5	54	-3.8	2	7	248	0.00	30.552 
10:10	9.5	9.5	9.5	54	-3.8	3	10	248	0.00	30.552 
10:15	9.5	9.5	9.5	54	-3.8	2	6	248	0.00	30.549 
10:20	9.7	9.7	9.7	55	-3.2	2	5	248	0.00	30.549 
10:25	10.4	10.4	10.4	54	-2.9	2	4	248	0.00	30.549 
10:30	10.5	10.5	10.5	52	-3.6	2	6	248	0.00	30.542 
10:35	10.4	10.4	10.4	51	-4.1	3	11	270	0.00	30.542 
10:40	10.2	2.9	10.2	50	-4.7	4	11	248	0.00	30.542 
10:45	10.5	10.5	10.5	52	-3.6	2	6	248	0.00	30.540 
10:50	11.2	11.2	11.2	52	-3.0	2	5	248	0.00	30.540 
10:55	11.6	11.6	11.6	51	-3.0	2	6	270	0.00	30.540 
11:00	11.9	11.9	11.9	50	-3.1	3	9	248	0.00	30.533 
11:05	11.7	4.6	11.7	50	-3.3	4	10	248	0.00	30.533 
11:10	11.9	11.9	11.9	50	-3.1	2	6	248	0.00	30.533 
11:15	12.4	12.4	12.4	48	-3.5	3	9	248	0.00	30.531 
11:20	12.9	12.9	12.9	52	-1.4	2	5	270	0.00	30.531 
11:25	13.3	13.3	13.3	48	-2.7	2	9	270	0.00	30.531 
11:30	13.5	13.5	13.5	48	-2.5	2	4	270	0.00	30.530 
11:35	13.5	13.5	13.5	49	-2.1	3	6	270	0.00	30.530 
11:40	13.6	13.6	13.6	47	-2.8	3	6	270	0.00	30.530 
11:45	13.6	13.6	13.6	48	-2.4	2	4	270	0.00	30.517 
11:50	14.0	14.0	14.0	50	-1.2	3	11	270	0.00	30.517 
11:55	14.0	7.3	14.0	52	-0.3	4	10	270	0.00	30.517 
12:00	14.3	14.3	14.3	51	-0.5	2	7	270	0.00	30.514 
12:05	14.1	7.4	14.1	46	-2.8	4	10	248	0.00	30.514 
12:10	14.1	14.1	14.1	50	-1.1	3	9	248	0.00	30.514 
12:15	14.8	14.8	14.8	47	-1.7	2	6	270	0.00	30.503 
12:20	14.8	14.8	14.8	46	-2.2	3	11	248	0.00	30.503 
12:25	14.9	14.9	14.9	50	-0.3	3	6	248	0.00	30.503 
12:30	15.4	8.9	15.4	45	-2.1	4	9	270	0.00	30.498 
12:35	15.9	15.9	15.9	48	-0.3	2	7	248	0.00	30.498 
12:40	15.6	15.6	15.6	49	-0.1	3	7	270	0.00	30.498 
12:45	16.1	16.1	16.1	48	-0.1	3	9	270	0.00	30.486 
12:50	16.2	16.2	16.2	46	-0.9	3	5	270	0.00	30.486 
12:55	16.2	16.2	16.2	48	-0.0	3	10	315	0.00	30.486 
13:00	16.5	16.5	16.5	49	0.7	3	7	270	0.00	30.477 
13:05	16.7	16.7	16.7	45	-0.9	3	9	270	0.00	30.477 
13:10	16.9	16.9	16.9	47	0.2	2	5	270	0.00	30.477 
13:15	16.9	16.9	16.9	44	-1.2	3	10	248	0.00	30.466 
13:20	16.9	10.6	16.9	46	-0.3	4	13	270	0.00	30.466 
13:25	16.9	16.9	16.9	48	0.6	3	7	270	0.00	30.466 
13:30	17.5	17.5	17.5	50	2.1	3	5	270	0.00	30.462 
13:35	17.3	17.3	17.3	47	0.6	3	6	248	0.00	30.462 
13:40	17.3	17.3	17.3	48	1.0	3	8	248	0.00	30.462 
13:45	18.0	18.0	18.0	46	0.8	3	9	270	0.00	30.450 
13:50	18.0	18.0	18.0	46	0.8	3	10	248	0.00	30.450 
13:55	18.1	18.1	18.1	45	0.4	3	7	270	0.00	30.450 
14:00	18.0	18.0	18.0	45	0.3	3	7	248	0.00	30.443 
14:05	18.4	18.4	18.4	49	2.5	2	9	248	0.00	30.443 
14:10	18.4	11.1	18.4	46	1.1	5	10	248	0.00	30.443 
14:15	18.3	18.3	18.3	46	1.0	2	5	248	0.00	30.437 
14:20	19.1	19.1	19.1	49	3.1	3	7	270	0.00	30.437 
14:25	19.4	19.4	19.4	48	3.0	2	5	270	0.00	30.437 
14:30	19.9	19.9	19.9	48	3.4	2	6	270	0.00	30.429 
14:35	19.7	19.7	19.7	46	2.3	3	11	248	0.00	30.429 
14:40	19.5	19.5	19.5	46	2.1	3	9	248	0.00	30.429 
14:45	19.7	19.7	19.7	46	2.3	3	7	270	0.00	30.417 
14:50	19.4	13.5	19.4	44	1.1	4	12	248	0.00	30.417 
14:55	19.2	13.3	19.2	46	1.9	4	10	248	0.00	30.417 
15:00	19.4	19.4	19.4	48	3.0	3	6	270	0.00	30.405 
15:05	19.7	19.7	19.7	47	2.8	2	6	248	0.00	30.405 
15:10	19.9	19.9	19.9	46	2.5	2	10	270	0.00	30.405 
15:15	19.2	13.3	19.2	45	1.4	4	12	270	0.00	30.398 
15:20	19.4	19.4	19.4	47	2.5	2	6	248	0.00	30.398 
15:25	19.9	19.9	19.9	49	3.9	2	5	248	0.00	30.398 
15:30	19.9	19.9	19.9	46	2.5	3	9	248	0.00	30.384 
15:35	20.5	20.5	20.5	46	3.0	3	5	248	0.00	30.384 
15:40	20.3	14.6	20.3	45	2.4	4	11	270	0.00	30.384 
15:45	19.5	12.4	19.5	45	1.7	5	12	270	0.00	30.393 
15:50	18.9	12.9	18.9	46	1.6	4	7	248	0.00	30.393 
15:55	19.1	19.1	19.1	48	2.7	3	9	248	0.00	30.393 
16:00	19.2	19.2	19.2	48	2.8	3	10	270	0.00	30.382 
16:05	19.1	19.1	19.1	48	2.7	3	6	248	0.00	30.382 
16:10	19.1	19.1	19.1	47	2.2	3	7	248	0.00	30.382 
16:15	19.2	19.2	19.2	47	2.3	3	9	248	0.00	30.377 
16:20	19.4	19.4	19.4	50	3.8	2	5	248	0.00	30.377 
16:25	19.7	19.7	19.7	48	3.2	3	7	248	0.00	30.377 
16:30	19.9	19.9	19.9	48	3.4	3	10	248	0.00	30.366 
16:35	19.7	19.7	19.7	47	2.8	2	5	270	0.00	30.366 
16:40	19.5	13.6	19.5	46	2.1	4	12	248	0.00	30.366 
16:45	19.5	19.5	19.5	48	3.0	2	5	270	0.00	30.366 
16:50	19.2	13.3	19.2	47	2.3	4	9	270	0.00	30.366 
16:55	19.4	19.4	19.4	49	3.4	2	6	270	0.00	30.366 
17:00	19.4	19.4	19.4	49	3.4	2	5	270	0.00	30.353 
17:05	19.5	19.5	19.5	47	2.6	3	11	248	0.00	30.353 
17:10	19.4	13.5	19.4	49	3.4	4	12	270	0.00	30.353 
17:15	19.2	19.2	19.2	47	2.3	3	10	248	0.00	30.350 
17:20	19.2	19.2	19.2	48	2.8	2	5	248	0.00	30.350 
17:25	19.4	19.4	19.4	47	2.5	2	6	270	0.00	30.350 
17:30	19.2	19.2	19.2	45	1.4	3	7	248	0.00	30.343 
17:35	18.9	12.9	18.9	46	1.6	4	9	248	0.00	30.343 
17:40	18.9	18.9	18.9	47	2.0	2	7	248	0.00	30.343 
17:45	18.9	18.9	18.9	47	2.0	2	5	248	0.00	30.340 
17:50	18.9	18.9	18.9	48	2.5	2	7	248	0.00	30.340 
17:55	18.6	18.6	18.6	48	2.2	2	6	248	0.00	30.340 
18:00	18.6	18.6	18.6	49	2.7	2	7	248	0.00	30.325 
18:05	18.6	18.6	18.6	49	2.7	2	5	248	0.00	30.325 
18:10	18.4	18.4	18.4	49	2.5	3	7	248	0.00	30.325 
18:15	18.4	18.4	18.4	50	2.9	2	7	248	0.00	30.323 
18:20	18.3	18.3	18.3	50	2.8	2	7	248	0.00	30.323 
18:25	18.3	12.3	18.3	49	2.4	4	9	248	0.00	30.323 
18:30	18.3	18.3	18.3	49	2.4	3	7	248	0.00	30.323 
18:35	18.4	18.4	18.4	48	2.0	3	5	248	0.00	30.323 
18:40	18.4	18.4	18.4	49	2.5	3	11	248	0.00	30.323 
18:45	18.4	12.4	18.4	48	2.0	4	10	248	0.00	30.322 
18:50	18.4	18.4	18.4	48	2.0	3	9	248	0.00	30.322 
18:55	18.4	18.4	18.4	50	2.9	1	4	270	0.00	30.322 
19:00	18.4	18.4	18.4	49	2.5	2	6	248	0.00	30.316 
19:05	18.6	18.6	18.6	50	3.1	2	9	248	0.00	30.316 
19:10	18.6	18.6	18.6	50	3.1	2	7	248	0.00	30.316 
19:15	18.6	18.6	18.6	50	3.1	3	7	248	0.00	30.323 
19:20	18.6	18.6	18.6	49	2.7	3	10	248	0.00	30.323 
19:25	18.6	18.6	18.6	50	3.1	3	7	248	0.00	30.323 
19:30	18.6	18.6	18.6	50	3.1	3	7	248	0.00	30.322 
19:35	18.8	18.8	18.8	51	3.7	2	5	248	0.00	30.322 
19:40	18.8	18.8	18.8	51	3.7	2	5	248	0.00	30.322 
19:45	18.8	18.8	18.8	51	3.7	2	7	248	0.00	30.320 
19:50	18.8	18.8	18.8	51	3.7	3	6	248	0.00	30.320 
19:55	18.8	18.8	18.8	50	3.3	3	7	248	0.00	30.320 
20:00	18.8	18.8	18.8	51	3.7	2	5	248	0.00	30.319 
20:05	18.8	18.8	18.8	51	3.7	3	7	248	0.00	30.319 
20:10	18.8	18.8	18.8	51	3.7	3	7	248	0.00	30.319 
20:15	18.8	18.8	18.8	52	4.1	2	6	248	0.00	30.312 
20:20	18.8	18.8	18.8	51	3.7	3	7	248	0.00	30.312 
20:25	18.8	18.8	18.8	52	4.1	3	7	248	0.00	30.312 
20:30	18.8	18.8	18.8	52	4.1	3	6	248	0.00	30.306 
20:35	18.6	18.6	18.6	52	3.9	3	6	248	0.00	30.306 
20:40	18.6	18.6	18.6	53	4.3	3	6	270	0.00	30.306 
20:45	18.6	12.6	18.6	53	4.3	4	10	248	0.00	30.303 
20:50	18.4	12.4	18.4	53	4.2	4	10	270	0.00	30.303 
20:55	18.4	12.4	18.4	54	4.6	4	12	248	0.00	30.303 
21:00	18.4	18.4	18.4	54	4.6	3	9	270	0.00	30.294 
21:05	18.3	12.3	18.3	54	4.5	4	12	248	0.00	30.294 
21:10	18.3	12.3	18.3	54	4.5	4	10	270	0.00	30.294 
21:15	18.3	12.3	18.3	54	4.5	4	9	248	0.00	30.290 
21:20	18.3	12.3	18.3	54	4.5	4	10	248	0.00	30.290 
21:25	18.3	12.3	18.3	54	4.5	4	9	270	0.00	30.290 
21:30	18.3	12.3	18.3	53	4.1	4	8	270	0.00	30.288 
21:35	18.1	12.0	18.1	53	3.9	4	7	270	0.00	30.288 
21:40	18.1	18.1	18.1	54	4.3	3	6	248	0.00	30.288 
21:45	18.3	18.3	18.3	54	4.5	3	10	248	0.00	30.288 
21:50	18.3	18.3	18.3	53	4.1	3	10	270	0.00	30.288 
21:55	18.3	18.3	18.3	54	4.5	3	9	270	0.00	30.288 
22:00	18.4	18.4	18.4	54	4.6	2	5	248	0.00	30.286 
22:05	18.4	18.4	18.4	54	4.6	3	7	248	0.00	30.286 
22:10	18.4	18.4	18.4	53	4.2	2	6	248	0.00	30.286 
22:15	18.3	18.3	18.3	54	4.5	3	11	248	0.00	30.280 
22:20	18.3	18.3	18.3	54	4.5	2	8	248	0.00	30.280 
22:25	18.3	18.3	18.3	54	4.5	2	7	270	0.00	30.280 
22:30	18.3	18.3	18.3	54	4.5	2	5	248	0.00	30.277 
22:35	18.1	18.1	18.1	54	4.3	2	8	248	0.00	30.277 
22:40	18.3	12.3	18.3	53	4.1	4	8	248	0.00	30.277 
22:45	18.3	18.3	18.3	55	4.9	2	6	248	0.00	30.276 
22:50	18.3	18.3	18.3	54	4.5	3	10	248	0.00	30.276 
22:55	18.3	18.3	18.3	53	4.1	2	7	248	0.00	30.276 
23:00	18.3	18.3	18.3	54	4.5	3	6	248	0.00	30.276 
23:05	18.4	18.4	18.4	53	4.2	3	7	248	0.00	30.276 
23:10	18.4	18.4	18.4	53	4.2	2	5	270	0.00	30.276 
23:15	18.4	18.4	18.4	54	4.6	2	6	248	0.00	30.269 
23:20	18.3	18.3	18.3	54	4.5	2	6	248	0.00	30.269 
23:25	18.4	18.4	18.4	54	4.6	3	11	270	0.00	30.269 
23:30	18.4	18.4	18.4	54	4.6	2	6	248	0.00	30.274 
23:35	18.4	12.4	18.4	54	4.6	4	11	270	0.00	30.274 
23:40	18.4	18.4	18.4	55	5.0	3	8	270	0.00	30.274 
23:45	18.4	18.4	18.4	55	5.0	3	6	270	0.00	30.267 
23:50	18.4	18.4	18.4	56	5.4	3	11	270	0.00	30.267 
23:55	18.4	18.4	18.4	55	5.0	3	12	248	0.00	30.267 

CoCoRaHS
IN-AL-39
A2 Web Hosting
Creative Commons License
GoDaddy
Look for:

loaded 2017-10-17 22:28:51 • last modified 2010-11-18 10:43:29
Privacy PolicyDisclaimer
• wx.awcolley.com is powered by PmWiki v.2002016 •
• all content (unless otherwise noted) © 2017 A W Colley